Time;durP1;ratioP1;P1;durP2;ratioP2;P2;SDS_P1;SDS_P2;PMS_P1;PMS_P2;Temp;Humidity;BMP_temperature;BMP_pressure;BME280_temperature;BME280_humidity;BME280_pressure;Samples;Min_cycle;Max_cycle;Signal;HPM_P1;HPM_P2
2023/08/07 07:55:09;;;;;;;;;;;;;;;10.32;100.00;99794.84;5551904;23;19950;-88
2023/08/07 07:57:34;;;;;;;;;;;;;;;10.36;100.00;99795.56;4990758;28;20016;-84
2023/08/07 08:00:00;;;;;;;;;;;;;;;10.41;100.00;99801.53;4992566;28;20408;-85
2023/08/07 08:02:26;;;;;;;;;;;;;;;10.42;100.00;99802.38;4991173;28;19922;-84
2023/08/07 08:04:51;;;;;;;;;;;;;;;10.36;100.00;99796.41;4990591;28;19925;-86
2023/08/07 08:07:16;;;;;;;;;;;;;;;10.48;100.00;99800.34;4991111;28;20000;-84
2023/08/07 08:09:41;;;;;;;;;;;;;;;10.41;100.00;99801.53;4989912;28;19987;-84
2023/08/07 08:12:07;;;;;;;;;;;;;;;10.43;100.00;99807.63;4991191;28;19976;-84
2023/08/07 08:14:32;;;;;;;;;;;;;;;10.49;100.00;99814.47;4991028;28;19925;-88
2023/08/07 08:16:57;;;;;;;;;;;;;;;10.58;100.00;99807.88;4986937;28;20606;-85
2023/08/07 08:19:23;;;;;;;;;;;;;;;10.42;100.00;99810.31;4991114;28;20375;-88
2023/08/07 08:21:48;;;;;;;;;;;;;;;10.39;100.00;99821.03;4991320;28;20288;-85
2023/08/07 08:24:13;;;;;;;;;;;;;;;10.71;100.00;99822.34;4989018;28;19918;-84
2023/08/07 08:26:38;;;;;;;;;;;;;;;10.46;100.00;99814.59;4991023;28;19972;-84
2023/08/07 08:29:05;;;;;;;;;;;;;;;10.58;100.00;99831.75;4991125;28;19918;-85
2023/08/07 08:31:30;;;;;;;;;;;;;;;10.45;100.00;99826.09;4992123;28;19941;-85
2023/08/07 08:33:55;;;;;;;;;;;;;;;10.40;100.00;99836.03;4992358;28;20281;-85
2023/08/07 08:36:21;;;;;;;;;;;;;;;10.49;100.00;99819.75;4990899;28;19925;-85
2023/08/07 08:38:48;;;;;;;;;;;;;;;10.36;100.00;99817.59;4991294;28;19972;-84
2023/08/07 08:41:13;;;;;;;;;;;;;;;10.48;100.00;99826.84;4990614;28;20003;-85
2023/08/07 08:43:40;;;;;;;;;;;;;;;10.48;100.00;99829.50;4990932;28;19973;-85
2023/08/07 08:46:06;;;;;;;;;;;;;;;10.54;100.00;99831.00;5010005;28;20465;-85
2023/08/07 08:48:34;;;;;;;;;;;;;;;10.49;100.00;99827.69;4994423;28;20032;-85
2023/08/07 08:50:59;;;;;;;;;;;;;;;10.52;100.00;99827.56;4989896;28;19932;-84
2023/08/07 08:53:25;;;;;;;;;;;;;;;10.56;100.00;99833.59;4994308;28;19918;-90
2023/08/07 08:55:51;;;;;;;;;;;;;;;10.39;100.00;99821.03;4992372;28;20008;-85
2023/08/07 08:58:16;;;;;;;;;;;;;;;10.38;100.00;99830.78;4994348;28;19918;-89
2023/08/07 09:00:42;;;;;;;;;;;;;;;10.45;100.00;99826.09;4995588;28;20008;-85
2023/08/07 09:03:07;;;;;;;;;;;;;;;10.48;100.00;99826.84;4994778;28;19945;-85
2023/08/07 09:05:33;;;;;;;;;;;;;;;10.49;100.00;99820.59;4995504;28;19969;-85
2023/08/07 09:08:01;;;;;;;;;;;;;;;10.43;100.00;99831.47;4994131;28;19929;-85
2023/08/07 09:10:26;;;;;;;;;;;;;;;10.29;100.00;99832.00;4994003;28;19945;-86
2023/08/07 09:13:03;;;;;;;;;;;;;;;10.38;100.00;99841.38;4994166;28;19922;-85
2023/08/07 09:15:29;;;;;;;;;;;;;;;10.36;100.00;99837.94;4994431;28;19922;-85
2023/08/07 09:17:55;;;;;;;;;;;;;;;10.38;100.00;99840.53;4995373;28;19972;-85
2023/08/07 09:20:22;;;;;;;;;;;;;;;10.78;100.00;99841.50;4993710;28;19921;-85
2023/08/07 09:22:48;;;;;;;;;;;;;;;10.60;100.00;99838.72;4995093;28;20354;-85
2023/08/07 09:25:14;;;;;;;;;;;;;;;10.45;100.00;99834.03;4993778;28;19922;-84
2023/08/07 09:27:40;;;;;;;;;;;;;;;10.45;100.00;99834.91;4994378;28;19922;-85
2023/08/07 09:30:07;;;;;;;;;;;;;;;10.46;100.00;99843.72;4995053;28;19964;-85
2023/08/07 09:32:33;;;;;;;;;;;;;;;10.42;100.00;99836.81;4993573;28;20087;-85
2023/08/07 09:34:58;;;;;;;;;;;;;;;10.45;100.00;99848.16;4993590;28;20028;-84
2023/08/07 09:37:24;;;;;;;;;;;;;;;10.42;100.00;99843.00;4994812;28;19957;-85
2023/08/07 09:39:49;;;;;;;;;;;;;;;10.54;100.00;99839.81;4993580;28;19960;-85
2023/08/07 09:42:17;;;;;;;;;;;;;;;10.35;100.00;99841.50;4993511;28;19921;-83
2023/08/07 09:44:43;;;;;;;;;;;;;;;10.52;100.00;99843.47;4994488;28;19953;-85
2023/08/07 09:47:18;;;;;;;;;;;;;;;10.30;100.00;99840.81;4994640;28;19926;-85
2023/08/07 09:49:43;;;;;;;;;;;;;;;10.31;100.00;99843.41;4994048;28;19999;-85
2023/08/07 09:52:10;;;;;;;;;;;;;;;10.35;100.00;99846.81;4994455;28;20385;-85
2023/08/07 09:54:36;;;;;;;;;;;;;;;10.34;100.00;99848.59;4993290;28;19972;-85
2023/08/07 09:57:01;;;;;;;;;;;;;;;10.45;100.00;99848.16;5000132;28;20009;-84
2023/08/07 09:59:27;;;;;;;;;;;;;;;10.36;100.00;99857.34;4994451;28;19992;-87
2023/08/07 10:01:53;;;;;;;;;;;;;;;10.56;100.00;99852.16;4993493;28;19925;-85
2023/08/07 10:04:18;;;;;;;;;;;;;;;10.76;100.00;99846.88;4993054;28;19925;-88
2023/08/07 10:06:43;;;;;;;;;;;;;;;10.56;100.00;99860.09;4993244;28;19961;-86
2023/08/07 10:09:09;;;;;;;;;;;;;;;10.44;100.00;99846.44;4991672;28;20251;-85
2023/08/07 10:11:34;;;;;;;;;;;;;;;10.34;100.00;99855.69;4992854;28;19925;-85
2023/08/07 10:14:00;;;;;;;;;;;;;;;10.46;100.00;99851.66;4992962;28;19918;-85
2023/08/07 10:16:27;;;;;;;;;;;;;;;10.39;100.00;99852.84;4992864;28;19922;-85
2023/08/07 10:18:52;;;;;;;;;;;;;;;10.77;100.00;99853.03;4994328;28;19917;-85
2023/08/07 10:21:19;;;;;;;;;;;;;;;10.36;100.00;99860.00;4994187;28;19992;-85
2023/08/07 10:23:44;;;;;;;;;;;;;;;10.43;100.00;99854.44;4994093;28;19913;-85
2023/08/07 10:26:10;;;;;;;;;;;;;;;10.35;100.00;99847.69;4991435;28;20345;-84
2023/08/07 10:28:39;;;;;;;;;;;;;;;10.47;100.00;99845.47;4993912;28;19918;-84
2023/08/07 10:31:05;;;;;;;;;;;;;;;10.37;100.00;99852.94;4992528;28;20254;-84
2023/08/07 10:33:31;;;;;;;;;;;;;;;10.48;100.00;99853.34;4992407;28;19957;-85
2023/08/07 10:35:57;;;;;;;;;;;;;;;10.44;100.00;99853.53;4993869;28;19914;-84
2023/08/07 10:38:23;;;;;;;;;;;;;;;10.40;100.00;99862.50;5000358;28;19918;-85
2023/08/07 10:41:00;;;;;;;;;;;;;;;10.45;100.00;99855.22;4991055;28;19936;-85
2023/08/07 10:43:27;;;;;;;;;;;;;;;10.36;100.00;99860.00;4991589;28;19918;-84
2023/08/07 10:45:55;;;;;;;;;;;;;;;10.43;100.00;99851.78;5008034;28;19957;-85
2023/08/07 10:48:32;;;;;;;;;;;;;;;;;;;;;
2023/08/07 10:51:03;;;;;;;;;;;;;;;10.56;100.00;99863.59;4993104;28;19944;-85
2023/08/07 10:53:31;;;;;;;;;;;;;;;10.39;100.00;99847.53;4992920;28;19940;-86
2023/08/07 10:55:59;;;;;;;;;;;;;;;10.38;100.00;99846.69;4991344;28;19922;-84
2023/08/07 10:58:32;;;;;;;;;;;;;;;10.41;100.00;99849.22;4993236;28;19925;-88
2023/08/07 11:01:17;;;;;;;;;;;;;;;10.43;100.00;99855.28;4999932;28;19922;-88
2023/08/07 11:03:42;;;;;;;;;;;;;;;10.48;100.00;99856.00;4993276;28;19991;-85
2023/08/07 11:06:12;;;;;;;;;;;;;;;10.42;100.00;99856.25;4993358;28;19973;-85
2023/08/07 11:08:38;;;;;;;;;;;;;;;10.48;100.00;99855.09;4991629;28;19929;-85
2023/08/07 11:11:05;;;;;;;;;;;;;;;10.47;100.00;99848.97;4991722;28;19925;-85
2023/08/07 11:13:31;;;;;;;;;;;;;;;10.44;100.00;99856.19;4993031;28;19964;-85
2023/08/07 11:15:57;;;;;;;;;;;;;;;10.49;100.00;99854.19;4991097;28;19918;-84
2023/08/07 11:18:22;;;;;;;;;;;;;;;10.46;100.00;99843.72;4993107;28;19933;-86
2023/08/07 11:20:48;;;;;;;;;;;;;;;10.65;100.00;99857.91;4991796;28;20412;-87
2023/08/07 11:23:24;;;;;;;;;;;;;;;10.53;100.00;99847.84;4991701;28;19944;-87
2023/08/07 11:25:49;;;;;;;;;;;;;;;10.50;100.00;99850.63;4989832;28;19932;-85
2023/08/07 11:28:17;;;;;;;;;;;;;;;10.49;100.00;99846.25;4992994;28;19918;-84
2023/08/07 11:30:44;;;;;;;;;;;;;;;10.53;100.00;99843.41;4992804;28;19918;-86
2023/08/07 11:33:10;;;;;;;;;;;;;;;10.38;100.00;99838.75;4992248;28;19976;-85
2023/08/07 11:35:40;;;;;;;;;;;;;;;10.41;100.00;99840.41;4992772;28;19952;-85
2023/08/07 11:38:06;;;;;;;;;;;;;;;10.50;100.00;99840.03;4991284;28;19918;-85
2023/08/07 11:40:31;;;;;;;;;;;;;;;10.60;100.00;99838.72;4990284;28;19969;-85
2023/08/07 11:42:57;;;;;;;;;;;;;;;10.54;100.00;99844.25;4992566;28;19921;-85
2023/08/07 11:45:22;;;;;;;;;;;;;;;10.45;100.00;99839.34;4991483;28;19929;-86
2023/08/07 11:47:49;;;;;;;;;;;;;;;10.53;100.00;99835.47;4992434;28;19918;-84
2023/08/07 11:50:15;;;;;;;;;;;;;;;10.46;100.00;99838.44;4992654;28;20351;-87
2023/08/07 11:52:41;;;;;;;;;;;;;;;10.40;100.00;99838.66;4992393;28;19968;-84
2023/08/07 11:55:08;;;;;;;;;;;;;;;10.46;100.00;99828.69;4989782;28;19961;-84
2023/08/07 11:57:37;;;;;;;;;;;;;;;10.75;100.00;99831.88;4992486;28;20020;-84
2023/08/07 12:00:08;;;;;;;;;;;;;;;10.63;100.00;99832.44;4990778;28;20428;-84
2023/08/07 12:02:35;;;;;;;;;;;;;;;10.47;100.00;99830.41;4992360;28;20068;-82
2023/08/07 12:05:00;;;;;;;;;;;;;;;10.48;100.00;99836.56;4991351;28;19925;-84
2023/08/07 12:07:26;;;;;;;;;;;;;;;10.49;100.00;99827.69;4992401;28;19922;-84
2023/08/07 12:09:51;;;;;;;;;;;;;;;10.47;100.00;99824.25;4990409;28;19966;-83
2023/08/07 12:12:19;;;;;;;;;;;;;;;10.40;100.00;99813.03;4991129;28;20301;-85
2023/08/07 12:14:44;;;;;;;;;;;;;;;10.52;100.00;99822.28;4986562;28;19950;-85
2023/08/07 12:17:09;;;;;;;;;;;;;;;10.40;100.00;99828.06;4991195;28;20024;-86
2023/08/07 12:19:35;;;;;;;;;;;;;;;10.43;100.00;99825.31;4991661;28;19921;-86
2023/08/07 12:22:03;;;;;;;;;;;;;;;10.41;100.00;99830.66;4995129;28;19925;-86
2023/08/07 12:24:29;;;;;;;;;;;;;;;10.47;100.00;99834.88;4991391;28;19933;-85
2023/08/07 12:26:54;;;;;;;;;;;;;;;10.49;100.00;99833.00;4996106;28;19918;-85
2023/08/07 12:29:20;;;;;;;;;;;;;;;10.36;100.00;99830.84;4994966;28;20364;-85
2023/08/07 12:31:46;;;;;;;;;;;;;;;10.62;100.00;99822.75;4994735;28;20401;-85
2023/08/07 12:34:11;;;;;;;;;;;;;;;10.48;100.00;99825.97;4995922;28;19949;-84
2023/08/07 12:36:36;;;;;;;;;;;;;;;10.44;100.00;99824.41;4990153;28;19940;-85
2023/08/07 12:39:01;;;;;;;;;;;;;;;10.68;100.00;99825.13;4993407;28;19922;-85
2023/08/07 12:41:27;;;;;;;;;;;;;;;10.65;100.00;99838.53;4994650;28;19922;-85
2023/08/07 12:43:53;;;;;;;;;;;;;;;10.48;100.00;99836.56;4994681;28;20012;-85
2023/08/07 12:46:18;;;;;;;;;;;;;;;10.62;100.00;99833.34;4990426;28;19922;-85
2023/08/07 12:48:43;;;;;;;;;;;;;;;10.53;100.00;99834.59;4994478;28;19918;-85
2023/08/07 12:51:08;;;;;;;;;;;;;;;10.48;100.00;99836.56;4995602;28;19925;-84
2023/08/07 12:53:34;;;;;;;;;;;;;;;10.68;100.00;99828.63;4993456;28;19918;-85
2023/08/07 12:55:59;;;;;;;;;;;;;;;10.63;100.00;99824.47;4992355;28;19933;-88
2023/08/07 12:58:27;;;;;;;;;;;;;;;10.47;100.00;99827.75;4995786;28;19945;-89
2023/08/07 13:00:52;;;;;;;;;;;;;;;10.50;100.00;99829.44;4990515;28;19928;-88
2023/08/07 13:03:17;;;;;;;;;;;;;;;10.56;100.00;99834.44;4995457;28;20335;-84
2023/08/07 13:05:43;;;;;;;;;;;;;;;10.55;100.00;99832.75;4995191;28;19925;-85
2023/08/07 13:08:08;;;;;;;;;;;;;;;10.42;100.00;99829.75;4995482;28;19933;-84
2023/08/07 13:10:33;;;;;;;;;;;;;;;10.56;100.00;99836.25;4994044;28;19924;-85
2023/08/07 13:13:01;;;;;;;;;;;;;;;10.49;100.00;99828.56;4995473;28;19918;-84
2023/08/07 13:15:26;;;;;;;;;;;;;;;10.53;100.00;99839.91;4994556;28;19918;-84
2023/08/07 13:17:51;;;;;;;;;;;;;;;10.55;100.00;99838.03;4995179;28;20377;-87
2023/08/07 13:20:17;;;;;;;;;;;;;;;10.50;100.00;99838.25;4995147;28;19925;-84
2023/08/07 13:22:43;;;;;;;;;;;;;;;10.55;100.00;99846.00;4995101;28;19918;-84
2023/08/07 13:25:09;;;;;;;;;;;;;;;10.54;100.00;99846.91;4992654;28;19933;-84
2023/08/07 13:27:35;;;;;;;;;;;;;;;10.48;100.00;99855.09;4995389;28;20008;-85
2023/08/07 13:30:00;;;;;;;;;;;;;;;10.57;100.00;99856.53;4994084;28;19929;-85
2023/08/07 13:32:26;;;;;;;;;;;;;;;10.65;100.00;99849.97;4992079;28;19917;-84
2023/08/07 13:34:51;;;;;;;;;;;;;;;10.53;100.00;99845.22;4994843;28;19918;-85
2023/08/07 13:37:16;;;;;;;;;;;;;;;10.59;100.00;99850.22;4994936;28;19918;-85
2023/08/07 13:39:42;;;;;;;;;;;;;;;10.59;100.00;99847.56;4993610;28;19922;-85
2023/08/07 13:42:07;;;;;;;;;;;;;;;10.49;100.00;99846.25;4994905;28;19918;-84
2023/08/07 13:44:33;;;;;;;;;;;;;;;10.49;100.00;99848.91;4994858;28;20331;-84
2023/08/07 13:46:58;;;;;;;;;;;;;;;10.59;100.00;99844.91;4993945;28;20392;-84
2023/08/07 13:49:23;;;;;;;;;;;;;;;10.62;100.00;99850.09;4994603;28;19914;-84
2023/08/07 13:51:49;;;;;;;;;;;;;;;10.60;100.00;99846.66;4994581;28;19922;-84
2023/08/07 13:54:14;;;;;;;;;;;;;;;10.54;100.00;99838.97;4992082;28;20258;-83
2023/08/07 13:56:40;;;;;;;;;;;;;;;10.47;100.00;99841.00;4994501;28;19925;-85
2023/08/07 13:59:05;;;;;;;;;;;;;;;10.56;100.00;99846.84;4993218;28;19922;-84
2023/08/07 14:01:32;;;;;;;;;;;;;;;10.47;100.00;99856.06;4994516;28;19943;-85
2023/08/07 14:04:01;;;;;;;;;;;;;;;10.55;100.00;99851.28;4994377;28;20611;-84
2023/08/07 14:06:27;;;;;;;;;;;;;;;10.89;100.00;99857.81;4994398;28;20375;-84
2023/08/07 14:08:52;;;;;;;;;;;;;;;10.65;100.00;99859.72;4993756;28;19948;-86
2023/08/07 14:11:19;;;;;;;;;;;;;;;10.68;100.00;99857.78;4993143;28;19921;-85
2023/08/07 14:13:45;;;;;;;;;;;;;;;10.67;100.00;99856.09;4994056;28;19922;-85
2023/08/07 14:16:10;;;;;;;;;;;;;;;11.05;100.00;99856.19;4993523;28;19922;-86
2023/08/07 14:18:36;;;;;;;;;;;;;;;10.83;100.00;99848.34;4992811;28;19917;-86
2023/08/07 14:21:01;;;;;;;;;;;;;;;10.60;100.00;99848.47;4994068;28;19921;-85
2023/08/07 14:23:26;;;;;;;;;;;;;;;10.71;100.00;99848.84;4994190;28;19971;-85
2023/08/07 14:25:52;;;;;;;;;;;;;;;10.57;100.00;99857.38;4991232;28;19922;-84
2023/08/07 14:28:18;;;;;;;;;;;;;;;10.81;100.00;99839.56;4992379;28;19925;-84
2023/08/07 14:30:43;;;;;;;;;;;;;;;10.54;100.00;99846.91;4992399;28;19922;-84
2023/08/07 14:33:08;;;;;;;;;;;;;;;10.62;100.00;99850.09;4992422;28;19918;-85
2023/08/07 14:35:34;;;;;;;;;;;;;;;10.63;100.00;99843.03;4989371;28;20360;-84
2023/08/07 14:37:59;;;;;;;;;;;;;;;10.54;100.00;99846.91;4986172;28;19922;-85
2023/08/07 14:40:24;;;;;;;;;;;;;;;10.54;100.00;99857.50;4984097;28;20416;-84
2023/08/07 14:42:53;;;;;;;;;;;;;;;10.57;100.00;99852.09;4990895;28;20369;-84
2023/08/07 14:45:18;;;;;;;;;;;;;;;10.58;100.00;99856.47;4991447;28;20358;-83
2023/08/07 14:47:43;;;;;;;;;;;;;;;10.72;100.00;99851.44;4989387;28;20036;-84
2023/08/07 14:50:09;;;;;;;;;;;;;;;10.53;100.00;99855.81;4984808;28;19977;-85
2023/08/07 14:52:34;;;;;;;;;;;;;;;10.79;100.00;99859.13;4985822;28;19929;-85
2023/08/07 14:55:02;;;;;;;;;;;;;;;10.66;100.00;99862.31;4990533;28;19964;-85
2023/08/07 14:57:27;;;;;;;;;;;;;;;10.64;100.00;99863.28;4992232;28;20431;-87
2023/08/07 14:59:53;;;;;;;;;;;;;;;10.65;100.00;99859.72;4988598;28;19941;-86
2023/08/07 15:02:18;;;;;;;;;;;;;;;10.72;100.00;99871.75;4990217;28;19967;-85
2023/08/07 15:04:43;;;;;;;;;;;;;;;10.69;100.00;99856.88;4991870;28;19924;-85
2023/08/07 15:07:08;;;;;;;;;;;;;;;10.62;100.00;99855.41;4987903;28;19922;-89
2023/08/07 15:09:34;;;;;;;;;;;;;;;10.68;100.00;99862.25;4989921;28;19922;-86
2023/08/07 15:11:59;;;;;;;;;;;;;;;10.88;100.00;99853.41;4986374;28;19925;-85
2023/08/07 15:14:24;;;;;;;;;;;;;;;11.07;100.00;99840.22;4988185;28;19926;-85
2023/08/07 15:16:49;;;;;;;;;;;;;;;10.77;100.00;99838.00;4983022;28;20103;-85
2023/08/07 15:19:15;;;;;;;;;;;;;;;10.61;100.00;99843.09;4988720;28;19922;-86
2023/08/07 15:21:40;;;;;;;;;;;;;;;10.61;100.00;99848.41;4989303;28;19922;-85
2023/08/07 15:24:05;;;;;;;;;;;;;;;10.64;100.00;99848.25;4987219;28;19928;-85
2023/08/07 15:26:31;;;;;;;;;;;;;;;10.68;100.00;99855.13;4991676;28;20012;-86
2023/08/07 15:28:56;;;;;;;;;;;;;;;10.69;100.00;99843.63;4991305;28;20377;-87
2023/08/07 15:31:21;;;;;;;;;;;;;;;10.71;100.00;99848.84;4991297;28;19961;-85
2023/08/07 15:33:49;;;;;;;;;;;;;;;10.94;100.00;99847.00;4987849;28;20292;-84
2023/08/07 15:36:14;;;;;;;;;;;;;;;10.70;100.00;99837.38;4988884;28;20012;-85
2023/08/07 15:38:40;;;;;;;;;;;;;;;10.79;100.00;99846.75;4990987;28;20445;-89
2023/08/07 15:41:05;;;;;;;;;;;;;;;10.64;100.00;99842.97;4986625;28;19917;-85
2023/08/07 15:43:30;;;;;;;;;;;;;;;10.67;100.00;99845.50;4986085;28;20778;-85
2023/08/07 15:48:44;;;;;;;;;;;;;;;10.99;100.00;99837.94;4989940;28;19925;-85
2023/08/07 15:51:09;;;;;;;;;;;;;;;10.86;100.00;99840.22;4986864;28;19926;-85
2023/08/07 15:53:35;;;;;;;;;;;;;;;10.70;100.00;99832.06;4992693;28;20469;-87
2023/08/07 15:56:00;;;;;;;;;;;;;;;10.77;100.00;99832.69;4989459;28;19933;-85
2023/08/07 15:58:25;;;;;;;;;;;;;;;10.77;100.00;99830.06;4987153;28;20289;-85
2023/08/07 16:00:51;;;;;;;;;;;;;;;10.66;100.00;99830.50;4991263;28;19922;-83
2023/08/07 16:03:17;;;;;;;;;;;;;;;10.69;100.00;99825.06;4989461;28;20020;-86
2023/08/07 16:05:54;;;;;;;;;;;;;;;10.77;100.00;99832.69;4987078;28;19929;-86
2023/08/07 16:08:19;;;;;;;;;;;;;;;10.68;100.00;99823.34;5004139;28;19921;-87
2023/08/07 16:10:44;;;;;;;;;;;;;;;10.66;100.00;99827.84;4981052;28;20420;-85
2023/08/07 16:13:09;;;;;;;;;;;;;;;10.69;100.00;99824.19;4990914;28;19926;-85
2023/08/07 16:15:35;;;;;;;;;;;;;;;10.69;100.00;99827.72;4991680;28;19926;-87
2023/08/07 16:18:01;;;;;;;;;;;;;;;10.72;100.00;99824.06;4990734;28;19976;-86
2023/08/07 16:20:27;;;;;;;;;;;;;;;10.76;100.00;99823.03;4992005;28;20379;-85
2023/08/07 16:22:53;;;;;;;;;;;;;;;10.71;100.00;99822.34;4992024;28;19926;-86
2023/08/07 16:25:19;;;;;;;;;;;;;;;10.68;100.00;99823.34;4988863;28;21216;-86
2023/08/07 16:27:45;;;;;;;;;;;;;;;10.59;100.00;99825.53;4989111;28;20289;-85
2023/08/07 16:30:10;;;;;;;;;;;;;;;10.70;100.00;99823.28;4984920;28;20293;-86
2023/08/07 16:32:36;;;;;;;;;;;;;;;10.59;100.00;99829.03;4984964;28;19941;-85
2023/08/07 16:35:08;;;;;;;;;;;;;;;10.85;100.00;99821.75;4990343;28;20349;-85
2023/08/07 16:37:33;;;;;;;;;;;;;;;10.70;100.00;99823.28;4988595;28;19918;-85
2023/08/07 16:39:58;;;;;;;;;;;;;;;10.71;100.00;99809.97;4987268;28;19933;-85
2023/08/07 16:42:24;;;;;;;;;;;;;;;10.54;100.00;99828.38;4988862;28;19917;-85
2023/08/07 16:44:50;;;;;;;;;;;;;;;10.85;100.00;99817.31;4987889;28;19922;-85
2023/08/07 16:47:22;;;;;;;;;;;;;;;10.80;100.00;99821.09;4986400;28;20778;-85
2023/08/07 16:49:48;;;;;;;;;;;;;;;10.62;100.00;99814.78;4990733;28;19963;-85
2023/08/07 16:52:14;;;;;;;;;;;;;;;10.67;100.00;99821.63;4991012;28;19979;-86
2023/08/07 16:54:39;;;;;;;;;;;;;;;10.84;100.00;99822.69;4990914;28;20001;-86
2023/08/07 16:57:05;;;;;;;;;;;;;;;10.76;100.00;99822.16;4991924;28;19932;-86
2023/08/07 16:59:30;;;;;;;;;;;;;;;10.79;100.00;99820.25;4989518;28;19921;-85
2023/08/07 17:01:56;;;;;;;;;;;;;;;10.78;100.00;99826.44;4990625;28;19925;-86
2023/08/07 17:04:23;;;;;;;;;;;;;;;10.79;100.00;99827.34;5005199;28;19921;-85
2023/08/07 17:06:48;;;;;;;;;;;;;;;10.66;100.00;99827.00;4992208;28;20008;-85
2023/08/07 17:09:14;;;;;;;;;;;;;;;10.66;100.00;99825.19;4994278;28;19929;-85
2023/08/07 17:11:39;;;;;;;;;;;;;;;10.81;100.00;99831.63;4995135;28;20396;-85
2023/08/07 17:14:05;;;;;;;;;;;;;;;10.78;100.00;99829.09;4993383;28;19928;-85
2023/08/07 17:16:30;;;;;;;;;;;;;;;10.75;100.00;99823.09;4989737;28;19929;-85
2023/08/07 17:18:55;;;;;;;;;;;;;;;10.70;100.00;99823.28;4994742;28;19926;-85
2023/08/07 17:21:21;;;;;;;;;;;;;;;10.80;100.00;99821.97;4991613;28;20005;-85
2023/08/07 17:23:46;;;;;;;;;;;;;;;10.88;100.00;99821.59;4992229;28;19922;-85
2023/08/07 17:26:12;;;;;;;;;;;;;;;10.99;100.00;99821.16;4993562;28;20044;-85
2023/08/07 17:28:37;;;;;;;;;;;;;;;10.89;100.00;99826.84;4995074;28;19929;-85
2023/08/07 17:31:04;;;;;;;;;;;;;;;10.89;100.00;99820.69;4995072;28;20361;-85
2023/08/07 17:33:29;;;;;;;;;;;;;;;10.87;100.00;99815.47;4993721;28;19928;-85
2023/08/07 17:35:54;;;;;;;;;;;;;;;10.77;100.00;99821.22;4995152;28;20016;-85
2023/08/07 17:38:30;;;;;;;;;;;;;;;10.90;100.00;99820.63;4993610;28;20266;-85
2023/08/07 17:40:55;;;;;;;;;;;;;;;10.81;100.00;99815.72;5005925;28;20399;-84
2023/08/07 17:43:21;;;;;;;;;;;;;;;10.88;100.00;99809.25;4994368;28;20024;-84
2023/08/07 17:45:46;;;;;;;;;;;;;;;10.73;100.00;99821.34;4994005;28;19960;-85
2023/08/07 17:48:12;;;;;;;;;;;;;;;10.83;100.00;99815.66;4992130;28;19969;-86
2023/08/07 17:50:37;;;;;;;;;;;;;;;10.74;100.00;99814.28;4993051;28;19922;-85
2023/08/07 17:53:03;;;;;;;;;;;;;;;10.78;100.00;99818.50;4994410;28;19971;-85
2023/08/07 17:55:28;;;;;;;;;;;;;;;10.87;100.00;99825.22;4991978;28;20381;-85
2023/08/07 17:57:54;;;;;;;;;;;;;;;11.00;100.00;99821.09;4991942;28;20424;-84
2023/08/07 18:00:19;;;;;;;;;;;;;;;11.01;100.00;99820.16;4993444;28;20388;-84
2023/08/07 18:02:44;;;;;;;;;;;;;;;10.99;100.00;99814.09;4994265;28;19918;-85
2023/08/07 18:05:10;;;;;;;;;;;;;;;10.85;100.00;99819.09;4993385;28;19936;-84
2023/08/07 18:07:56;;;;;;;;;;;;;;;10.84;100.00;99814.75;4981629;28;19932;-86
2023/08/07 18:10:21;;;;;;;;;;;;;;;10.82;100.00;99816.59;4989087;28;19928;-85
2023/08/07 18:12:46;;;;;;;;;;;;;;;10.77;100.00;99814.16;4993926;28;19922;-85
2023/08/07 18:15:11;;;;;;;;;;;;;;;10.68;100.00;99817.19;4993477;28;19922;-85
2023/08/07 18:17:37;;;;;;;;;;;;;;;10.71;100.00;99817.91;4992967;28;19953;-85
2023/08/07 18:20:11;;;;;;;;;;;;;;;10.68;100.00;99807.44;4993470;28;19929;-85
2023/08/07 18:22:37;;;;;;;;;;;;;;;10.82;100.00;99814.81;4991404;28;19972;-85
2023/08/07 18:25:02;;;;;;;;;;;;;;;10.94;100.00;99809.91;4992460;28;19961;-85
2023/08/07 18:27:27;;;;;;;;;;;;;;;10.86;100.00;99805.78;4993172;28;19933;-84
2023/08/07 18:29:53;;;;;;;;;;;;;;;11.01;100.00;99811.34;4994015;28;19936;-87
2023/08/07 18:32:18;;;;;;;;;;;;;;;10.95;100.00;99806.31;4992975;28;19925;-84
2023/08/07 18:34:43;;;;;;;;;;;;;;;10.90;100.00;99810.03;4993580;28;19960;-84
2023/08/07 18:37:09;;;;;;;;;;;;;;;10.84;100.00;99812.94;4993915;28;19929;-84
2023/08/07 18:39:34;;;;;;;;;;;;;;;10.93;100.00;99811.69;4992411;28;19929;-84
2023/08/07 18:41:59;;;;;;;;;;;;;;;10.79;100.00;99808.78;4992559;28;19917;-84
2023/08/07 18:44:25;;;;;;;;;;;;;;;10.90;100.00;99803.88;4993615;28;19929;-84
2023/08/07 18:46:50;;;;;;;;;;;;;;;10.87;100.00;99802.22;4993786;28;20400;-84
2023/08/07 18:49:15;;;;;;;;;;;;;;;10.88;100.00;99809.25;4993665;28;19944;-85
2023/08/07 18:51:43;;;;;;;;;;;;;;;10.96;100.00;99810.69;4993609;28;19921;-84
2023/08/07 18:54:09;;;;;;;;;;;;;;;10.90;100.00;99812.69;4992260;28;19975;-85
2023/08/07 18:56:34;;;;;;;;;;;;;;;11.00;100.00;99817.59;4993291;28;19968;-84
2023/08/07 18:59:03;;;;;;;;;;;;;;;11.03;100.00;99820.09;4993785;28;19945;-93
2023/08/07 19:01:28;;;;;;;;;;;;;;;10.98;100.00;99820.31;4993262;28;19996;-84
2023/08/07 19:03:53;;;;;;;;;;;;;;;10.92;100.00;99823.22;4993498;28;20464;-84
2023/08/07 19:06:18;;;;;;;;;;;;;;;10.69;100.00;99825.06;4993267;28;20034;-84
2023/08/07 19:08:46;;;;;;;;;;;;;;;10.96;100.00;99827.47;4993171;28;19921;-84
2023/08/07 19:11:11;;;;;;;;;;;;;;;10.76;100.00;99824.81;4991920;28;19922;-84
2023/08/07 19:13:37;;;;;;;;;;;;;;;10.64;100.00;99832.38;4993153;28;20526;-84
2023/08/07 19:18:59;;;;;;;;;;;;;;;10.81;100.00;99838.72;4992933;28;19926;-85
2023/08/07 19:21:25;;;;;;;;;;;;;;;10.83;100.00;99839.50;4989397;28;19944;-85
2023/08/07 19:23:50;;;;;;;;;;;;;;;10.86;100.00;99836.72;4991987;28;19922;-84
2023/08/07 19:26:15;;;;;;;;;;;;;;;10.80;100.00;99837.00;4989959;28;19928;-84
2023/08/07 19:28:41;;;;;;;;;;;;;;;10.88;100.00;99842.81;4991007;28;19925;-85
2023/08/07 19:31:06;;;;;;;;;;;;;;;10.83;100.00;99839.50;4991864;28;19929;-84
2023/08/07 19:33:32;;;;;;;;;;;;;;;10.80;100.00;99829.03;4990098;28;20012;-84
2023/08/07 19:35:57;;;;;;;;;;;;;;;10.88;100.00;99848.13;4992110;28;19922;-88
2023/08/07 19:38:22;;;;;;;;;;;;;;;10.77;100.00;99838.00;4989344;28;19917;-83
2023/08/07 19:40:47;;;;;;;;;;;;;;;10.78;100.00;99844.16;4989944;28;19928;-86
2023/08/07 19:43:13;;;;;;;;;;;;;;;10.70;100.00;99847.13;4991304;28;19918;-85
2023/08/07 19:45:38;;;;;;;;;;;;;;;10.75;100.00;99846.94;4992649;28;20028;-85
2023/08/07 19:48:03;;;;;;;;;;;;;;;10.68;100.00;99851.63;4989971;28;19944;-87
2023/08/07 19:50:29;;;;;;;;;;;;;;;10.73;100.00;99842.56;4992402;28;20816;-86
2023/08/07 19:52:54;;;;;;;;;;;;;;;10.66;100.00;99834.94;4992405;28;19918;-86
2023/08/07 19:55:20;;;;;;;;;;;;;;;10.69;100.00;99848.94;4989615;28;19932;-85
2023/08/07 19:57:45;;;;;;;;;;;;;;;10.62;100.00;99847.44;4990251;28;20301;-85
2023/08/07 20:00:11;;;;;;;;;;;;;;;10.68;100.00;99849.00;4991207;28;19917;-85
2023/08/07 20:02:36;;;;;;;;;;;;;;;10.78;100.00;99844.16;4991467;28;20321;-87
2023/08/07 20:05:01;;;;;;;;;;;;;;;10.80;100.00;99842.28;4992295;28;19914;-85
2023/08/07 20:07:26;;;;;;;;;;;;;;;10.81;100.00;99842.22;4991071;28;20010;-86
2023/08/07 20:09:52;;;;;;;;;;;;;;;10.76;100.00;99844.22;4989940;28;19918;-85
2023/08/07 20:12:17;;;;;;;;;;;;;;;10.82;100.00;99843.97;4990857;28;19921;-86
2023/08/07 20:14:42;;;;;;;;;;;;;;;10.90;100.00;99849.78;4992072;28;20274;-87
2023/08/07 20:17:08;;;;;;;;;;;;;;;10.94;100.00;99847.84;4986835;28;19928;-87
2023/08/07 20:19:33;;;;;;;;;;;;;;;10.82;100.00;99846.59;4990813;28;19918;-85
2023/08/07 20:21:59;;;;;;;;;;;;;;;10.87;100.00;99849.06;4990433;28;20424;-86
2023/08/07 20:24:26;;;;;;;;;;;;;;;10.73;100.00;99858.44;4990745;28;19925;-86
2023/08/07 20:26:52;;;;;;;;;;;;;;;10.70;100.00;99858.56;4990972;28;19924;-86
2023/08/07 20:29:17;;;;;;;;;;;;;;;10.62;100.00;99852.75;4991271;28;19918;-86
2023/08/07 20:31:42;;;;;;;;;;;;;;;10.67;100.00;99850.78;4990525;28;20266;-86